Time;durP1;ratioP1;P1;durP2;ratioP2;P2;SDS_P1;SDS_P2;PMS_P1;PMS_P2;Temp;Humidity;BMP_temperature;BMP_pressure;BME280_temperature;BME280_humidity;BME280_pressure;Samples;Min_cycle;Max_cycle;Signal;HPM_P1;HPM_P2
2023/06/28 00:00:08;;;;;;;121.03;115.40;;;12.00;99.90;;;;;;5025892;28;20046;-73
2023/06/28 00:02:36;;;;;;;127.95;122.25;;;12.00;99.90;;;;;;5031379;28;20040;-73
2023/06/28 00:05:09;;;;;;;104.18;99.15;;;12.00;99.90;;;;;;5018930;28;20695;-73
2023/06/28 00:07:35;;;;;;;94.85;90.38;;;12.00;99.90;;;;;;5042956;28;20080;-73
2023/06/28 00:10:01;;;;;;;92.35;87.85;;;12.00;99.90;;;;;;5030244;28;20045;-73
2023/06/28 00:12:29;;;;;;;93.15;88.30;;;12.00;99.90;;;;;;5043643;28;20512;-72
2023/06/28 00:14:55;;;;;;;98.75;93.93;;;12.00;99.90;;;;;;5037784;28;20095;-73
2023/06/28 00:17:27;;;;;;;111.72;106.63;;;12.00;99.90;;;;;;5044131;28;20063;-73
2023/06/28 00:20:06;;;;;;;115.15;109.72;;;12.00;99.90;;;;;;5027777;28;20051;-73
2023/06/28 00:22:33;;;;;;;130.35;124.20;;;12.10;99.90;;;;;;5026784;28;20120;-73
2023/06/28 00:25:05;;;;;;;136.93;130.52;;;12.10;99.90;;;;;;5035413;28;20102;-73
2023/06/28 00:27:31;;;;;;;131.27;125.10;;;12.10;99.90;;;;;;5045326;28;20084;-73
2023/06/28 00:29:58;;;;;;;146.32;139.80;;;12.10;99.90;;;;;;5030699;28;20083;-73
2023/06/28 00:32:24;;;;;;;136.32;130.43;;;12.10;99.90;;;;;;5042765;28;20263;-73
2023/06/28 00:34:50;;;;;;;152.00;144.63;;;12.10;99.90;;;;;;5075737;28;20053;-73
2023/06/28 00:37:16;;;;;;;160.13;152.57;;;12.00;99.90;;;;;;5037989;28;20499;-73
2023/06/28 00:39:42;;;;;;;173.35;165.32;;;12.00;99.90;;;;;;5027970;28;20573;-73
2023/06/28 00:42:08;;;;;;;144.00;137.20;;;12.00;99.90;;;;;;5039559;28;20386;-73
2023/06/28 00:44:34;;;;;;;165.25;157.77;;;12.00;99.90;;;;;;5038549;28;20040;-73
2023/06/28 00:47:01;;;;;;;149.60;142.90;;;12.00;99.90;;;;;;5045943;28;20446;-73
2023/06/28 00:49:31;;;;;;;139.25;132.80;;;12.00;99.90;;;;;;5034378;28;20044;-73
2023/06/28 00:51:58;;;;;;;130.32;124.47;;;12.00;99.90;;;;;;5021137;28;20127;-73
2023/06/28 00:54:24;;;;;;;138.88;132.55;;;12.00;99.90;;;;;;5037825;28;20052;-73
2023/06/28 00:56:51;;;;;;;142.45;136.15;;;12.00;99.90;;;;;;5040008;28;20587;-73
2023/06/28 00:59:17;;;;;;;130.40;124.18;;;12.00;99.90;;;;;;5019632;28;20317;-73
2023/06/28 01:01:43;;;;;;;123.32;117.57;;;12.00;99.90;;;;;;5053907;28;20041;-73
2023/06/28 01:04:09;;;;;;;127.82;121.65;;;12.00;99.90;;;;;;5041464;28;20405;-73
2023/06/28 01:06:37;;;;;;;131.82;125.82;;;12.00;99.90;;;;;;5041879;28;20037;-73
2023/06/28 01:09:07;;;;;;;131.02;124.72;;;12.00;99.90;;;;;;5047526;28;20056;-73
2023/06/28 01:11:34;;;;;;;121.43;115.80;;;12.00;99.90;;;;;;5066795;28;20052;-74
2023/06/28 01:14:01;;;;;;;118.47;112.75;;;12.00;99.90;;;;;;5040853;28;20060;-73
2023/06/28 01:16:27;;;;;;;123.20;117.43;;;12.00;99.90;;;;;;5028359;28;20048;-73
2023/06/28 01:18:53;;;;;;;120.57;114.97;;;12.00;99.90;;;;;;5037468;28;20400;-73
2023/06/28 01:21:22;;;;;;;113.47;108.15;;;12.00;99.90;;;;;;5028673;28;20222;-73
2023/06/28 01:23:48;;;;;;;111.88;106.53;;;12.00;99.90;;;;;;5030184;28;20045;-73
2023/06/28 01:26:16;;;;;;;121.53;115.70;;;12.00;99.90;;;;;;5036258;28;20402;-73
2023/06/28 01:28:42;;;;;;;120.57;114.85;;;12.00;99.90;;;;;;5022742;28;20103;-73
2023/06/28 01:31:11;;;;;;;123.13;117.28;;;11.90;99.90;;;;;;5020276;28;20048;-73
2023/06/28 01:33:38;;;;;;;117.35;111.95;;;12.00;99.90;;;;;;5032910;28;20101;-73
2023/06/28 01:36:04;;;;;;;124.63;118.45;;;12.00;99.90;;;;;;5025520;28;20111;-73
2023/06/28 01:38:31;;;;;;;122.03;116.40;;;12.00;99.90;;;;;;5046265;28;20494;-73
2023/06/28 01:40:58;;;;;;;130.55;123.95;;;12.00;99.90;;;;;;5031626;28;20087;-73
2023/06/28 01:43:24;;;;;;;131.05;124.82;;;12.00;99.90;;;;;;5038332;28;20500;-73
2023/06/28 01:45:50;;;;;;;122.55;116.70;;;12.00;99.90;;;;;;5041841;28;20040;-73
2023/06/28 01:48:17;;;;;;;135.13;128.45;;;12.10;99.90;;;;;;5038665;28;20041;-73
2023/06/28 01:50:43;;;;;;;119.68;113.95;;;12.10;99.90;;;;;;5031498;28;20049;-73
2023/06/28 01:53:09;;;;;;;124.90;118.97;;;12.10;99.90;;;;;;5031302;28;20042;-73
2023/06/28 01:55:34;;;;;;;128.63;122.18;;;12.20;99.90;;;;;;5045710;28;20567;-73
2023/06/28 01:58:00;;;;;;;131.00;124.93;;;12.20;99.90;;;;;;5028371;28;20070;-73
2023/06/28 02:00:26;;;;;;;144.82;137.20;;;12.20;99.90;;;;;;5043390;28;20056;-73
2023/06/28 02:02:53;;;;;;;133.82;127.10;;;12.30;99.90;;;;;;5023424;28;20057;-73
2023/06/28 02:05:19;;;;;;;160.38;152.52;;;12.40;99.90;;;;;;5045438;28;20552;-73
2023/06/28 02:07:45;;;;;;;185.50;176.90;;;12.50;99.90;;;;;;5028719;28;20041;-73
2023/06/28 02:10:11;;;;;;;183.48;174.68;;;12.50;99.90;;;;;;5027134;28;20043;-73
2023/06/28 02:12:37;;;;;;;173.40;164.95;;;12.60;99.90;;;;;;5039105;28;20045;-73
2023/06/28 02:15:04;;;;;;;175.00;166.43;;;12.60;99.90;;;;;;5060071;28;20042;-73
2023/06/28 02:17:31;;;;;;;176.23;167.73;;;12.60;99.90;;;;;;5034553;28;20041;-73
2023/06/28 02:19:57;;;;;;;175.80;167.65;;;12.70;99.90;;;;;;5017305;28;20077;-73
2023/06/28 02:22:23;;;;;;;180.27;171.70;;;12.70;99.90;;;;;;5032374;28;20045;-73
2023/06/28 02:24:49;;;;;;;147.15;139.77;;;12.70;99.90;;;;;;5041533;28;20504;-73
2023/06/28 02:27:15;;;;;;;144.90;137.98;;;12.70;99.90;;;;;;5029760;28;20459;-73
2023/06/28 02:29:40;;;;;;;157.85;150.07;;;12.70;99.90;;;;;;5028658;28;20428;-73
2023/06/28 02:32:06;;;;;;;164.13;156.25;;;12.70;99.90;;;;;;5036888;28;20047;-73
2023/06/28 02:34:32;;;;;;;159.38;151.80;;;12.80;99.90;;;;;;5027384;28;20049;-73
2023/06/28 02:36:58;;;;;;;200.50;191.13;;;12.80;99.90;;;;;;5013853;28;20045;-73
2023/06/28 02:39:24;;;;;;;186.18;177.35;;;12.80;99.90;;;;;;5040979;28;20073;-73
2023/06/28 02:41:50;;;;;;;145.27;138.20;;;12.80;99.90;;;;;;5028643;28;20507;-73
2023/06/28 02:44:16;;;;;;;117.07;111.13;;;12.90;99.90;;;;;;5045181;28;20136;-73
2023/06/28 02:46:42;;;;;;;123.40;117.32;;;12.90;99.90;;;;;;5034531;28;20452;-73
2023/06/28 02:49:08;;;;;;;136.43;129.75;;;12.90;99.90;;;;;;5034978;28;20061;-72
2023/06/28 02:51:34;;;;;;;161.60;154.07;;;12.90;99.90;;;;;;5045386;28;20033;-73
2023/06/28 02:54:00;;;;;;;140.25;133.38;;;12.90;99.90;;;;;;5025879;28;20040;-73
2023/06/28 02:56:26;;;;;;;161.55;153.98;;;13.00;99.90;;;;;;5028788;28;20045;-73
2023/06/28 02:58:52;;;;;;;159.40;151.57;;;13.00;99.90;;;;;;5028888;28;20053;-73
2023/06/28 03:01:20;;;;;;;147.35;140.38;;;13.10;99.90;;;;;;5024352;28;20119;-73
2023/06/28 03:03:46;;;;;;;159.30;151.63;;;13.10;99.90;;;;;;5031922;28;20489;-73
2023/06/28 03:06:12;;;;;;;161.43;153.75;;;13.20;99.90;;;;;;5040008;28;20049;-73
2023/06/28 03:08:37;;;;;;;157.18;149.70;;;13.20;99.90;;;;;;5078309;28;20366;-73
2023/06/28 03:11:03;;;;;;;175.38;167.35;;;13.20;99.90;;;;;;5034278;28;20541;-73
2023/06/28 03:13:29;;;;;;;174.40;166.13;;;13.30;99.90;;;;;;5037922;28;20489;-73
2023/06/28 03:15:54;;;;;;;178.63;170.10;;;13.40;99.90;;;;;;5073932;28;20044;-73
2023/06/28 03:18:20;;;;;;;159.07;151.50;;;13.40;99.90;;;;;;5027995;28;20051;-73
2023/06/28 03:20:46;;;;;;;184.07;175.68;;;13.50;99.90;;;;;;5021693;28;20488;-73
2023/06/28 03:23:11;;;;;;;179.95;171.57;;;13.50;99.90;;;;;;5032115;28;20045;-74
2023/06/28 03:25:37;;;;;;;154.02;146.88;;;13.50;99.90;;;;;;5031950;28;20124;-73
2023/06/28 03:28:03;;;;;;;172.48;164.57;;;13.60;99.90;;;;;;5030154;28;20048;-73
2023/06/28 03:30:28;;;;;;;171.25;163.07;;;13.60;99.90;;;;;;5043070;28;20055;-73
2023/06/28 03:32:54;;;;;;;167.63;159.95;;;13.70;99.90;;;;;;5044717;28;20041;-73
2023/06/28 03:35:20;;;;;;;192.80;184.07;;;13.70;99.90;;;;;;5036653;28;20493;-73
2023/06/28 03:37:53;;;;;;;200.15;191.20;;;13.80;99.90;;;;;;5046258;28;20082;-73
2023/06/28 03:40:18;;;;;;;229.75;219.07;;;13.80;99.90;;;;;;5061806;28;20127;-73
2023/06/28 03:42:44;;;;;;;212.35;202.52;;;13.80;99.90;;;;;;5021184;28;20115;-73
2023/06/28 03:45:10;;;;;;;165.63;157.77;;;13.80;99.90;;;;;;5030407;28;20041;-73
2023/06/28 03:47:36;;;;;;;178.88;170.48;;;13.80;99.90;;;;;;5030372;28;20047;-73
2023/06/28 03:50:02;;;;;;;186.40;177.75;;;13.90;99.90;;;;;;5029345;28;20048;-73
2023/06/28 03:52:27;;;;;;;199.90;190.40;;;13.80;99.90;;;;;;5039218;28;20042;-73
2023/06/28 03:54:54;;;;;;;204.65;195.05;;;13.90;99.90;;;;;;5041610;28;20186;-73
2023/06/28 03:57:21;;;;;;;193.57;184.60;;;13.90;99.90;;;;;;5047874;28;20064;-73
2023/06/28 03:59:47;;;;;;;199.43;190.13;;;13.90;99.90;;;;;;5035445;28;20203;-73
2023/06/28 04:02:13;;;;;;;208.05;198.40;;;13.90;99.90;;;;;;5044675;28;20045;-73
2023/06/28 04:04:39;;;;;;;249.77;238.10;;;13.90;99.90;;;;;;5045335;28;20592;-73
2023/06/28 04:07:05;;;;;;;222.18;211.68;;;13.90;99.90;;;;;;5070104;28;20124;-72
2023/06/28 04:09:31;;;;;;;228.32;217.80;;;13.90;99.90;;;;;;5022320;28;20397;-72
2023/06/28 04:11:57;;;;;;;237.50;226.60;;;13.90;99.90;;;;;;5026161;28;20586;-73
2023/06/28 04:14:25;;;;;;;214.27;204.60;;;13.90;99.90;;;;;;5035348;28;20045;-72
2023/06/28 04:16:52;;;;;;;187.68;178.88;;;13.90;99.90;;;;;;5040833;28;20151;-73
2023/06/28 04:19:18;;;;;;;200.32;191.25;;;13.90;99.90;;;;;;5036475;28;20490;-73
2023/06/28 04:21:43;;;;;;;183.88;175.23;;;13.80;99.90;;;;;;5050363;28;20045;-73
2023/06/28 04:24:09;;;;;;;234.25;223.45;;;13.90;99.90;;;;;;5045697;28;20044;-73
2023/06/28 04:26:35;;;;;;;266.27;253.38;;;13.90;99.90;;;;;;5042566;28;20056;-73
2023/06/28 04:29:01;;;;;;;252.73;240.85;;;13.90;99.90;;;;;;5038121;28;20045;-73
2023/06/28 04:31:27;;;;;;;231.02;220.25;;;13.90;99.90;;;;;;5045319;28;20094;-73
2023/06/28 04:33:55;;;;;;;211.00;200.85;;;13.90;99.90;;;;;;5025389;28;20052;-73
2023/06/28 04:36:22;;;;;;;226.40;215.70;;;13.90;99.90;;;;;;5074181;28;20099;-73
2023/06/28 04:38:55;;;;;;;235.90;224.80;;;14.00;99.90;;;;;;5044257;28;20103;-73
2023/06/28 04:41:22;;;;;;;230.98;220.02;;;14.00;99.90;;;;;;5026209;28;20052;-73
2023/06/28 04:43:49;;;;;;;269.42;256.60;;;14.00;99.90;;;;;;5027646;28;20409;-73
2023/06/28 04:46:14;;;;;;;300.38;285.70;;;14.10;99.90;;;;;;5027789;28;20052;-73
2023/06/28 04:48:43;;;;;;;222.13;211.65;;;14.10;99.90;;;;;;5034001;28;20040;-73
2023/06/28 04:51:09;;;;;;;243.98;232.25;;;14.20;99.90;;;;;;5046457;28;20436;-73
2023/06/28 04:53:34;;;;;;;278.40;265.17;;;14.20;99.90;;;;;;5029091;28;20047;-73
2023/06/28 04:56:00;;;;;;;244.23;232.80;;;14.30;99.90;;;;;;5042997;28;20037;-73
2023/06/28 04:58:26;;;;;;;294.52;280.52;;;14.30;99.90;;;;;;5039599;28;20138;-73
2023/06/28 05:00:55;;;;;;;274.90;262.05;;;14.40;99.90;;;;;;5031000;28;20136;-73
2023/06/28 05:03:26;;;;;;;218.27;208.05;;;14.40;99.90;;;;;;5038325;28;20053;-73
2023/06/28 05:05:53;;;;;;;229.38;218.52;;;14.50;99.90;;;;;;5030424;28;20037;-73
2023/06/28 05:08:18;;;;;;;234.73;223.68;;;14.50;99.90;;;;;;5070228;28;20065;-73
2023/06/28 05:10:44;;;;;;;250.32;238.20;;;14.50;99.90;;;;;;5027226;28;20079;-73
2023/06/28 05:13:10;;;;;;;288.83;275.38;;;14.50;99.90;;;;;;5043086;28;20428;-73
2023/06/28 05:15:35;;;;;;;326.15;310.55;;;14.60;99.90;;;;;;5044953;28;20048;-73
2023/06/28 05:18:01;;;;;;;209.23;199.70;;;14.70;99.90;;;;;;5041834;28;20110;-73
2023/06/28 05:20:28;;;;;;;239.15;227.98;;;14.70;99.90;;;;;;5028963;28;20471;-73
2023/06/28 05:23:09;;;;;;;214.48;204.43;;;14.80;99.90;;;;;;5040188;28;20048;-73
2023/06/28 05:25:34;;;;;;;233.38;222.32;;;14.80;99.90;;;;;;5036920;28;20068;-74
2023/06/28 05:28:00;;;;;;;315.20;300.20;;;14.90;99.90;;;;;;5045709;28;20146;-74
2023/06/28 05:30:26;;;;;;;258.92;246.82;;;14.90;99.90;;;;;;5035835;28;20080;-73
2023/06/28 05:32:51;;;;;;;287.58;274.25;;;15.00;99.90;;;;;;5039447;28;20041;-74
2023/06/28 05:35:17;;;;;;;211.43;201.75;;;15.00;99.90;;;;;;5060123;28;20048;-73
2023/06/28 05:37:42;;;;;;;236.07;224.93;;;15.00;99.90;;;;;;5032191;28;20424;-73
2023/06/28 05:40:09;;;;;;;218.15;207.40;;;15.10;99.90;;;;;;5037626;28;20441;-73
2023/06/28 05:42:34;;;;;;;291.15;277.40;;;15.20;99.90;;;;;;5061398;28;20046;-73
2023/06/28 05:45:00;;;;;;;199.90;190.30;;;15.20;99.90;;;;;;5042486;28;20052;-73
2023/06/28 05:47:26;;;;;;;123.55;117.85;;;15.30;99.90;;;;;;5042971;28;20040;-74
2023/06/28 05:49:51;;;;;;;181.25;172.75;;;15.30;99.90;;;;;;5036988;28;20135;-73
2023/06/28 05:52:17;;;;;;;181.27;172.88;;;15.40;99.90;;;;;;5037463;28;20503;-72
2023/06/28 05:54:43;;;;;;;143.70;136.95;;;15.40;99.90;;;;;;5034690;28;20040;-74
2023/06/28 05:57:08;;;;;;;143.90;136.90;;;15.40;99.90;;;;;;5037752;28;20215;-75
2023/06/28 05:59:34;;;;;;;162.45;154.50;;;15.50;99.90;;;;;;5043180;28;20374;-74
2023/06/28 06:02:00;;;;;;;197.75;188.15;;;15.40;99.90;;;;;;5035393;28;20052;-74
2023/06/28 06:04:25;;;;;;;111.88;106.63;;;15.50;99.90;;;;;;5038972;28;20191;-74
2023/06/28 06:06:51;;;;;;;153.60;146.52;;;15.50;99.90;;;;;;5044711;28;20128;-74
2023/06/28 06:09:17;;;;;;;182.13;173.40;;;15.50;99.90;;;;;;5046536;28;20072;-75
2023/06/28 06:11:42;;;;;;;177.52;169.13;;;15.50;99.90;;;;;;5044312;28;20056;-75
2023/06/28 06:14:08;;;;;;;167.38;159.50;;;15.60;99.90;;;;;;5046110;28;20044;-74
2023/06/28 06:16:34;;;;;;;94.60;89.78;;;15.60;99.90;;;;;;5047708;28;20045;-74
2023/06/28 06:19:00;;;;;;;155.48;148.25;;;15.60;99.90;;;;;;5025095;28;20175;-75
2023/06/28 06:21:25;;;;;;;159.73;152.05;;;15.60;99.90;;;;;;5024661;28;20044;-74
2023/06/28 06:23:51;;;;;;;146.35;139.38;;;15.60;99.90;;;;;;5036026;28;20037;-74
2023/06/28 06:26:17;;;;;;;127.55;121.38;;;15.60;99.90;;;;;;5038510;28;20489;-73
2023/06/28 06:28:43;;;;;;;145.40;138.48;;;15.70;99.90;;;;;;5037678;28;20135;-74
2023/06/28 06:31:13;;;;;;;159.38;151.82;;;15.70;99.90;;;;;;5039902;28;20080;-72
2023/06/28 06:33:41;;;;;;;151.10;143.88;;;15.70;99.90;;;;;;5039952;28;20056;-72
2023/06/28 06:36:07;;;;;;;120.03;113.85;;;15.70;99.90;;;;;;5038481;28;20045;-72
2023/06/28 06:38:33;;;;;;;180.35;171.77;;;15.80;99.90;;;;;;5046361;28;20481;-73
2023/06/28 06:40:58;;;;;;;243.88;231.82;;;15.80;99.90;;;;;;5018891;28;20587;-72
2023/06/28 06:43:24;;;;;;;142.48;135.45;;;15.80;99.90;;;;;;5040286;28;20128;-73
2023/06/28 06:45:49;;;;;;;139.43;133.02;;;15.80;99.90;;;;;;5048129;28;20401;-73
2023/06/28 06:48:15;;;;;;;117.85;111.95;;;15.80;99.90;;;;;;5029213;28;20037;-72
2023/06/28 06:50:41;;;;;;;88.70;83.95;;;15.80;99.90;;;;;;5046162;28;20044;-72
2023/06/28 06:53:08;;;;;;;98.28;93.45;;;15.80;99.90;;;;;;5050130;28;20094;-72
2023/06/28 06:55:33;;;;;;;113.97;108.20;;;15.70;99.90;;;;;;5031961;28;20047;-72
2023/06/28 06:57:59;;;;;;;139.00;132.27;;;15.70;99.90;;;;;;5025303;28;20041;-72
2023/06/28 07:00:25;;;;;;;161.75;153.82;;;15.70;99.90;;;;;;5032350;28;20049;-74
2023/06/28 07:02:50;;;;;;;112.72;107.10;;;15.70;99.90;;;;;;5077143;28;20499;-74
2023/06/28 07:05:16;;;;;;;135.25;128.75;;;15.70;99.90;;;;;;5047727;28;20124;-72
2023/06/28 07:07:42;;;;;;;111.30;105.63;;;15.60;99.90;;;;;;5032560;28;20091;-71
2023/06/28 07:10:09;;;;;;;112.88;107.13;;;15.70;99.90;;;;;;5046615;28;20071;-72
2023/06/28 07:12:34;;;;;;;183.50;174.43;;;15.70;99.90;;;;;;5073405;28;20619;-71
2023/06/28 07:15:01;;;;;;;284.05;269.33;;;15.80;99.90;;;;;;5041851;28;20045;-71
2023/06/28 07:17:26;;;;;;;127.50;121.10;;;15.90;99.90;;;;;;5038979;28;20060;-71
2023/06/28 07:19:52;;;;;;;203.88;193.60;;;16.00;99.90;;;;;;5030468;28;20044;-71
2023/06/28 07:22:17;;;;;;;163.32;154.90;;;16.00;99.90;;;;;;5063439;28;20041;-71
2023/06/28 07:24:43;;;;;;;284.60;270.08;;;16.00;99.90;;;;;;5063005;28;20128;-71
2023/06/28 07:27:09;;;;;;;344.25;326.80;;;16.10;99.90;;;;;;5031814;28;20087;-72
2023/06/28 07:29:35;;;;;;;222.93;211.20;;;16.10;99.90;;;;;;5069876;28;20037;-71
2023/06/28 07:32:01;;;;;;;246.45;234.00;;;16.20;99.90;;;;;;5024630;28;20059;-71
2023/06/28 07:34:27;;;;;;;195.63;186.18;;;16.20;99.90;;;;;;5025932;28;20070;-71
2023/06/28 07:36:53;;;;;;;113.85;108.07;;;16.20;99.90;;;;;;5053732;28;20045;-70
2023/06/28 07:39:19;;;;;;;264.85;251.70;;;16.30;99.90;;;;;;5022459;28;20050;-71
2023/06/28 07:41:44;;;;;;;325.00;308.17;;;16.30;99.90;;;;;;5044959;28;20045;-71
2023/06/28 07:44:10;;;;;;;140.70;133.63;;;16.30;99.90;;;;;;5031677;28;20052;-71
2023/06/28 07:46:35;;;;;;;135.70;129.10;;;16.30;99.90;;;;;;5047012;28;20037;-71
2023/06/28 07:49:01;;;;;;;382.27;362.80;;;16.30;99.90;;;;;;5048885;28;20048;-72
2023/06/28 07:51:27;;;;;;;314.58;298.77;;;16.30;99.90;;;;;;5022058;28;20037;-71
2023/06/28 07:53:53;;;;;;;252.85;240.57;;;16.30;99.90;;;;;;5045965;28;20036;-71
2023/06/28 07:56:19;;;;;;;209.45;199.45;;;16.40;99.90;;;;;;5039770;28;20540;-72
2023/06/28 07:58:45;;;;;;;300.75;285.15;;;16.30;99.90;;;;;;5029730;28;20079;-71
2023/06/28 08:01:11;;;;;;;342.85;325.35;;;16.30;99.90;;;;;;5031254;28;20040;-72
2023/06/28 08:03:37;;;;;;;338.05;320.20;;;16.30;99.90;;;;;;5040984;28;20060;-71
2023/06/28 08:06:03;;;;;;;439.77;416.38;;;16.30;99.90;;;;;;5039615;28;20074;-71
2023/06/28 08:08:29;;;;;;;317.98;301.13;;;16.40;99.90;;;;;;5040526;28;20492;-71
2023/06/28 08:10:54;;;;;;;365.38;346.48;;;16.40;99.90;;;;;;5048455;28;20053;-72
2023/06/28 08:13:20;;;;;;;436.63;413.50;;;16.50;99.90;;;;;;5043057;28;20144;-71
2023/06/28 08:15:46;;;;;;;269.42;255.65;;;16.50;99.90;;;;;;5033610;28;20446;-71
2023/06/28 08:18:12;;;;;;;346.17;327.90;;;16.60;99.90;;;;;;5018070;28;20056;-71
2023/06/28 08:20:38;;;;;;;364.52;345.52;;;16.60;99.90;;;;;;5038886;28;20468;-71
2023/06/28 08:23:03;;;;;;;266.80;253.38;;;16.60;99.90;;;;;;5026296;28;20051;-71
2023/06/28 08:25:29;;;;;;;302.25;287.08;;;16.70;99.90;;;;;;5056299;28;20117;-71
2023/06/28 08:27:55;;;;;;;273.65;260.17;;;16.70;99.90;;;;;;5042159;28;20045;-72
2023/06/28 08:30:20;;;;;;;453.23;428.95;;;16.70;99.90;;;;;;5034746;28;20428;-72
2023/06/28 08:32:46;;;;;;;466.92;441.77;;;16.70;99.90;;;;;;5034787;28;20464;-72
2023/06/28 08:35:12;;;;;;;148.27;141.10;;;16.70;99.90;;;;;;5041233;28;20055;-72
2023/06/28 08:37:38;;;;;;;155.93;148.38;;;16.80;99.90;;;;;;5068087;28;20401;-72
2023/06/28 08:40:05;;;;;;;201.07;190.90;;;16.70;99.90;;;;;;5033147;28;20047;-72
2023/06/28 08:42:33;;;;;;;237.27;225.45;;;16.70;99.90;;;;;;5030607;28;20040;-72
2023/06/28 08:45:03;;;;;;;272.83;259.35;;;16.60;99.90;;;;;;5041587;28;20106;-72
2023/06/28 08:47:32;;;;;;;238.27;226.73;;;16.60;99.90;;;;;;5026275;28;20428;-72
2023/06/28 08:49:58;;;;;;;282.50;268.58;;;16.60;99.90;;;;;;5035127;28;20048;-72
2023/06/28 08:52:26;;;;;;;283.98;269.92;;;16.60;99.90;;;;;;5046360;28;20060;-72
2023/06/28 08:54:52;;;;;;;355.10;337.08;;;16.70;99.90;;;;;;5067385;28;20426;-72
2023/06/28 08:57:19;;;;;;;222.38;210.68;;;16.70;99.90;;;;;;5045934;28;20056;-72
2023/06/28 08:59:46;;;;;;;349.83;331.52;;;16.80;99.90;;;;;;5048327;28;20398;-72
2023/06/28 09:02:17;;;;;;;324.42;307.77;;;16.80;99.90;;;;;;5042221;28;20554;-73
2023/06/28 09:04:43;;;;;;;238.20;225.60;;;16.80;99.90;;;;;;5024785;28;20128;-72
2023/06/28 09:07:09;;;;;;;146.32;139.05;;;16.80;99.90;;;;;;5051712;28;20055;-72
2023/06/28 09:09:35;;;;;;;307.05;291.95;;;16.80;99.90;;;;;;5036120;28;20094;-73
2023/06/28 09:12:02;;;;;;;318.55;302.52;;;16.70;99.90;;;;;;5022431;28;20085;-73
2023/06/28 09:14:28;;;;;;;462.45;437.63;;;16.60;99.90;;;;;;5021077;28;20041;-73
2023/06/28 09:16:54;;;;;;;480.05;454.00;;;16.70;99.90;;;;;;5034989;28;20056;-73
2023/06/28 09:19:20;;;;;;;469.17;443.42;;;16.70;99.90;;;;;;5053438;28;20041;-73
2023/06/28 09:21:46;;;;;;;385.55;365.05;;;16.80;99.90;;;;;;5035700;28;20045;-73
2023/06/28 09:24:12;;;;;;;222.75;211.90;;;16.90;99.90;;;;;;5068546;28;20049;-72
2023/06/28 09:26:42;;;;;;;191.02;181.48;;;16.90;99.90;;;;;;5046471;28;20041;-72
2023/06/28 09:29:10;;;;;;;348.88;330.13;;;16.90;99.90;;;;;;5041131;28;20048;-73
2023/06/28 09:31:47;;;;;;;341.15;323.55;;;16.90;99.90;;;;;;5049036;28;20080;-74
2023/06/28 09:34:13;;;;;;;262.92;249.32;;;16.90;99.90;;;;;;5065319;28;20130;-73
2023/06/28 09:36:38;;;;;;;284.70;270.17;;;16.90;99.90;;;;;;5035953;28;20037;-73
2023/06/28 09:39:07;;;;;;;304.88;289.13;;;16.90;99.90;;;;;;5041323;28;20044;-73
2023/06/28 09:41:41;;;;;;;214.52;202.82;;;16.90;99.90;;;;;;5036025;28;20811;-72
2023/06/28 09:44:11;;;;;;;260.35;247.70;;;16.90;99.90;;;;;;5027207;28;20459;-72
2023/06/28 09:46:44;;;;;;;301.50;285.88;;;16.80;99.90;;;;;;5036372;28;20051;-73
2023/06/28 09:49:24;;;;;;;246.57;234.13;;;16.80;99.90;;;;;;5024896;28;20040;-73
2023/06/28 09:52:04;;;;;;;346.05;328.33;;;16.80;99.90;;;;;;5035905;28;20094;-73
2023/06/28 09:54:31;;;;;;;229.93;218.38;;;16.90;99.90;;;;;;5043248;28;20048;-73
2023/06/28 09:56:59;;;;;;;271.65;258.17;;;16.90;99.90;;;;;;5036417;28;20497;-73
2023/06/28 09:59:27;;;;;;;253.70;241.05;;;17.00;99.90;;;;;;5025084;28;20065;-73
2023/06/28 10:01:56;;;;;;;259.48;246.65;;;17.00;99.90;;;;;;5026126;28;20052;-73
2023/06/28 10:04:24;;;;;;;247.48;235.00;;;17.10;99.90;;;;;;5036669;28;20064;-73
2023/06/28 10:06:51;;;;;;;346.70;328.85;;;17.10;99.90;;;;;;5052154;28;20049;-73
2023/06/28 10:09:19;;;;;;;220.07;209.02;;;17.10;99.90;;;;;;5039754;28;20053;-73
2023/06/28 10:11:47;;;;;;;302.25;287.05;;;17.10;99.90;;;;;;5041183;28;20088;-73
2023/06/28 10:14:14;;;;;;;209.40;199.10;;;17.20;99.90;;;;;;5018566;28;20049;-73
2023/06/28 10:16:41;;;;;;;348.95;331.05;;;17.20;99.90;;;;;;5041308;28;20052;-72
2023/06/28 10:19:09;;;;;;;373.90;354.67;;;17.30;99.90;;;;;;5063276;28;20045;-72
2023/06/28 10:21:35;;;;;;;250.30;238.27;;;17.30;99.90;;;;;;5037633;28;20041;-73
2023/06/28 10:24:03;;;;;;;252.55;240.07;;;17.40;99.90;;;;;;5048552;28;20040;-72
2023/06/28 10:26:30;;;;;;;335.27;318.63;;;17.40;99.90;;;;;;5033350;28;20472;-72
2023/06/28 10:28:57;;;;;;;277.33;263.88;;;17.40;99.90;;;;;;5048233;28;20455;-72
2023/06/28 10:31:23;;;;;;;303.45;288.33;;;17.50;99.90;;;;;;5034998;28;20552;-72
2023/06/28 10:33:50;;;;;;;324.92;309.20;;;17.50;99.90;;;;;;5028815;28;20523;-73
2023/06/28 10:36:16;;;;;;;308.70;293.50;;;17.60;99.90;;;;;;5035292;28;20044;-71
2023/06/28 10:38:43;;;;;;;376.02;357.15;;;17.60;99.90;;;;;;5045349;28;20532;-73
2023/06/28 10:41:14;;;;;;;302.55;287.80;;;17.60;99.90;;;;;;5043610;28;20053;-72
2023/06/28 10:43:40;;;;;;;301.98;287.10;;;17.60;99.90;;;;;;5021422;28;20076;-73
2023/06/28 10:46:23;;;;;;;331.95;315.17;;;17.60;99.90;;;;;;5026554;28;20051;-72
2023/06/28 10:48:55;;;;;;;259.42;246.93;;;17.60;99.90;;;;;;5073204;28;20132;-73
2023/06/28 10:51:25;;;;;;;240.63;228.95;;;17.50;99.90;;;;;;5021657;28;20320;-73
2023/06/28 10:53:53;;;;;;;195.23;185.57;;;17.50;99.90;;;;;;5028452;28;20051;-73
2023/06/28 10:56:20;;;;;;;241.52;229.75;;;17.50;99.90;;;;;;5037527;28;20417;-72
2023/06/28 10:58:47;;;;;;;356.13;338.20;;;17.50;99.90;;;;;;5036130;28;20052;-72
2023/06/28 11:01:31;;;;;;;329.25;312.85;;;17.40;99.90;;;;;;5043592;28;20507;-72
2023/06/28 11:04:16;;;;;;;282.45;268.10;;;17.40;99.90;;;;;;5033487;28;20057;-72
2023/06/28 11:06:42;;;;;;;306.45;291.17;;;17.30;99.90;;;;;;5033234;28;20148;-72
2023/06/28 11:09:17;;;;;;;360.00;341.73;;;17.20;99.90;;;;;;5020629;28;20148;-72
2023/06/28 11:12:00;;;;;;;229.57;218.43;;;17.20;99.90;;;;;;5042310;28;20756;-73
2023/06/28 11:14:31;;;;;;;339.80;322.88;;;17.20;99.90;;;;;;5045112;28;20126;-73
2023/06/28 11:17:07;;;;;;;287.90;273.00;;;17.10;99.90;;;;;;5042242;28;20048;-73
2023/06/28 11:19:33;;;;;;;381.13;361.02;;;17.10;99.90;;;;;;5040775;28;20501;-73
2023/06/28 11:22:00;;;;;;;379.73;360.38;;;17.10;99.90;;;;;;5036702;28;20045;-73
2023/06/28 11:24:44;;;;;;;309.88;294.08;;;17.20;99.90;;;;;;5030785;28;20128;-73
2023/06/28 11:27:15;;;;;;;394.35;373.38;;;17.20;99.90;;;;;;5021996;28;20505;-73
2023/06/28 11:29:58;;;;;;;400.67;379.20;;;17.30;99.90;;;;;;5034608;28;20045;-71
2023/06/28 11:32:28;;;;;;;385.17;364.60;;;17.30;99.90;;;;;;5036100;28;20059;-72
2023/06/28 11:34:56;;;;;;;527.53;497.02;;;17.40;99.90;;;;;;5031507;28;20083;-73
2023/06/28 11:37:22;;;;;;;481.35;454.23;;;17.40;99.90;;;;;;5045321;28;20045;-73
2023/06/28 11:39:49;;;;;;;325.13;308.02;;;17.50;99.90;;;;;;5049353;28;20135;-73
2023/06/28 11:42:15;;;;;;;350.48;332.33;;;17.60;99.90;;;;;;5045368;28;20036;-72
2023/06/28 11:44:49;;;;;;;235.65;223.52;;;17.60;99.90;;;;;;5047594;28;20442;-73
2023/06/28 11:47:23;;;;;;;347.58;330.13;;;17.70;99.90;;;;;;5052904;28;20497;-73
2023/06/28 11:49:49;;;;;;;320.57;304.80;;;17.70;99.90;;;;;;5039677;28;20087;-72
2023/06/28 11:52:20;;;;;;;474.60;448.08;;;17.70;99.90;;;;;;5038012;28;20405;-73
2023/06/28 11:54:46;;;;;;;443.88;419.63;;;17.70;99.90;;;;;;5027760;28;20041;-73
2023/06/28 11:57:12;;;;;;;414.10;392.13;;;17.70;99.90;;;;;;5034357;28;20047;-73
2023/06/28 11:59:44;;;;;;;448.10;423.73;;;17.70;99.90;;;;;;5036253;28;20475;-73
2023/06/28 12:02:10;;;;;;;542.33;510.67;;;17.70;99.90;;;;;;5050284;28;20049;-72
2023/06/28 12:04:37;;;;;;;454.13;428.88;;;17.70;99.90;;;;;;5062902;28;20053;-72
2023/06/28 12:07:06;;;;;;;563.13;529.00;;;17.60;99.90;;;;;;5048209;28;20554;-72